sensor_id;sensor_type;location;lat;lon;timestamp;P1;durP1;ratioP1;P2;durP2;ratioP2
22916;SDS011;11624;53.250;7.456;2024-02-16T00:00:18;1.88;;;1.05;;
22916;SDS011;11624;53.250;7.456;2024-02-16T00:02:47;2.67;;;0.85;;
22916;SDS011;11624;53.250;7.456;2024-02-16T00:05:16;0.30;;;0.30;;
22916;SDS011;11624;53.250;7.456;2024-02-16T00:07:45;0.38;;;0.25;;
22916;SDS011;11624;53.250;7.456;2024-02-16T00:10:14;0.35;;;0.35;;
22916;SDS011;11624;53.250;7.456;2024-02-16T00:12:45;1.60;;;0.93;;
22916;SDS011;11624;53.250;7.456;2024-02-16T00:15:13;0.30;;;0.30;;
22916;SDS011;11624;53.250;7.456;2024-02-16T00:17:42;1.23;;;0.60;;
22916;SDS011;11624;53.250;7.456;2024-02-16T00:20:10;0.38;;;0.38;;
22916;SDS011;11624;53.250;7.456;2024-02-16T00:22:40;0.35;;;0.35;;
22916;SDS011;11624;53.250;7.456;2024-02-16T00:25:10;1.48;;;0.60;;
22916;SDS011;11624;53.250;7.456;2024-02-16T00:27:39;1.67;;;0.85;;
22916;SDS011;11624;53.250;7.456;2024-02-16T00:30:08;3.60;;;1.63;;
22916;SDS011;11624;53.250;7.456;2024-02-16T00:32:38;0.98;;;0.50;;
22916;SDS011;11624;53.250;7.456;2024-02-16T00:35:07;0.90;;;0.43;;
22916;SDS011;11624;53.250;7.456;2024-02-16T00:37:36;2.67;;;0.90;;
22916;SDS011;11624;53.250;7.456;2024-02-16T00:40:05;0.32;;;0.32;;
22916;SDS011;11624;53.250;7.456;2024-02-16T00:42:36;1.65;;;0.63;;
22916;SDS011;11624;53.250;7.456;2024-02-16T00:45:05;0.10;;;0.10;;
22916;SDS011;11624;53.250;7.456;2024-02-16T00:47:35;0.57;;;0.57;;
22916;SDS011;11624;53.250;7.456;2024-02-16T00:50:03;1.20;;;0.63;;
22916;SDS011;11624;53.250;7.456;2024-02-16T00:52:35;1.30;;;0.73;;
22916;SDS011;11624;53.250;7.456;2024-02-16T00:55:04;5.20;;;0.60;;
22916;SDS011;11624;53.250;7.456;2024-02-16T00:57:32;0.10;;;0.10;;
22916;SDS011;11624;53.250;7.456;2024-02-16T01:00:03;0.50;;;0.50;;
22916;SDS011;11624;53.250;7.456;2024-02-16T01:02:32;1.65;;;0.63;;
22916;SDS011;11624;53.250;7.456;2024-02-16T01:05:00;0.30;;;0.30;;
22916;SDS011;11624;53.250;7.456;2024-02-16T01:07:30;4.50;;;0.85;;
22916;SDS011;11624;53.250;7.456;2024-02-16T01:09:59;0.63;;;0.43;;
22916;SDS011;11624;53.250;7.456;2024-02-16T01:12:30;1.58;;;0.57;;
22916;SDS011;11624;53.250;7.456;2024-02-16T01:14:58;0.28;;;0.28;;
22916;SDS011;11624;53.250;7.456;2024-02-16T01:17:29;0.30;;;0.30;;
22916;SDS011;11624;53.250;7.456;2024-02-16T01:19:59;0.20;;;0.17;;
22916;SDS011;11624;53.250;7.456;2024-02-16T01:22:28;0.65;;;0.52;;
22916;SDS011;11624;53.250;7.456;2024-02-16T01:24:57;0.43;;;0.43;;
22916;SDS011;11624;53.250;7.456;2024-02-16T01:27:25;2.80;;;1.65;;
22916;SDS011;11624;53.250;7.456;2024-02-16T01:29:54;0.17;;;0.17;;
22916;SDS011;11624;53.250;7.456;2024-02-16T01:32:23;0.10;;;0.10;;
22916;SDS011;11624;53.250;7.456;2024-02-16T01:34:53;0.28;;;0.28;;
22916;SDS011;11624;53.250;7.456;2024-02-16T01:37:22;0.30;;;0.30;;
22916;SDS011;11624;53.250;7.456;2024-02-16T01:39:50;1.20;;;0.73;;
22916;SDS011;11624;53.250;7.456;2024-02-16T01:42:19;0.47;;;0.32;;
22916;SDS011;11624;53.250;7.456;2024-02-16T01:44:48;0.38;;;0.38;;
22916;SDS011;11624;53.250;7.456;2024-02-16T01:47:16;2.63;;;0.95;;
22916;SDS011;11624;53.250;7.456;2024-02-16T01:49:47;19.40;;;1.85;;
22916;SDS011;11624;53.250;7.456;2024-02-16T01:52:17;0.50;;;0.25;;
22916;SDS011;11624;53.250;7.456;2024-02-16T01:54:47;0.17;;;0.17;;
22916;SDS011;11624;53.250;7.456;2024-02-16T01:57:15;0.17;;;0.17;;
22916;SDS011;11624;53.250;7.456;2024-02-16T01:59:44;0.45;;;0.45;;
22916;SDS011;11624;53.250;7.456;2024-02-16T02:02:13;1.08;;;0.55;;
22916;SDS011;11624;53.250;7.456;2024-02-16T02:04:41;0.15;;;0.15;;
22916;SDS011;11624;53.250;7.456;2024-02-16T02:07:11;0.22;;;0.22;;
22916;SDS011;11624;53.250;7.456;2024-02-16T02:09:41;0.50;;;0.32;;
22916;SDS011;11624;53.250;7.456;2024-02-16T02:12:10;0.38;;;0.38;;
22916;SDS011;11624;53.250;7.456;2024-02-16T02:14:39;0.28;;;0.28;;
22916;SDS011;11624;53.250;7.456;2024-02-16T02:17:08;0.80;;;0.65;;
22916;SDS011;11624;53.250;7.456;2024-02-16T02:19:37;0.55;;;0.30;;
22916;SDS011;11624;53.250;7.456;2024-02-16T02:22:10;1.75;;;0.55;;
22916;SDS011;11624;53.250;7.456;2024-02-16T02:24:41;1.52;;;0.77;;
22916;SDS011;11624;53.250;7.456;2024-02-16T02:27:10;0.85;;;0.68;;
22916;SDS011;11624;53.250;7.456;2024-02-16T02:29:39;1.80;;;0.75;;
22916;SDS011;11624;53.250;7.456;2024-02-16T02:32:08;0.85;;;0.57;;
22916;SDS011;11624;53.250;7.456;2024-02-16T02:34:37;0.30;;;0.30;;
22916;SDS011;11624;53.250;7.456;2024-02-16T02:37:06;0.35;;;0.35;;
22916;SDS011;11624;53.250;7.456;2024-02-16T02:39:36;0.88;;;0.65;;
22916;SDS011;11624;53.250;7.456;2024-02-16T02:42:04;0.25;;;0.25;;
22916;SDS011;11624;53.250;7.456;2024-02-16T02:44:33;0.40;;;0.40;;
22916;SDS011;11624;53.250;7.456;2024-02-16T02:47:02;0.80;;;0.60;;
22916;SDS011;11624;53.250;7.456;2024-02-16T02:49:30;12.43;;;3.90;;
22916;SDS011;11624;53.250;7.456;2024-02-16T02:52:00;11.32;;;4.28;;
22916;SDS011;11624;53.250;7.456;2024-02-16T02:54:28;12.45;;;3.80;;
22916;SDS011;11624;53.250;7.456;2024-02-16T02:56:58;11.63;;;4.05;;
22916;SDS011;11624;53.250;7.456;2024-02-16T02:59:27;10.70;;;3.75;;
22916;SDS011;11624;53.250;7.456;2024-02-16T03:01:55;9.43;;;3.13;;
22916;SDS011;11624;53.250;7.456;2024-02-16T03:04:24;8.23;;;3.33;;
22916;SDS011;11624;53.250;7.456;2024-02-16T03:06:52;12.18;;;3.53;;
22916;SDS011;11624;53.250;7.456;2024-02-16T03:09:21;10.10;;;3.45;;
22916;SDS011;11624;53.250;7.456;2024-02-16T03:11:50;14.27;;;3.90;;
22916;SDS011;11624;53.250;7.456;2024-02-16T03:14:21;11.70;;;3.75;;
22916;SDS011;11624;53.250;7.456;2024-02-16T03:16:49;11.38;;;3.65;;
22916;SDS011;11624;53.250;7.456;2024-02-16T03:19:17;9.98;;;3.15;;
22916;SDS011;11624;53.250;7.456;2024-02-16T03:21:46;10.00;;;3.53;;
22916;SDS011;11624;53.250;7.456;2024-02-16T03:24:15;8.48;;;3.28;;
22916;SDS011;11624;53.250;7.456;2024-02-16T03:26:43;9.82;;;3.10;;
22916;SDS011;11624;53.250;7.456;2024-02-16T03:29:12;10.43;;;3.50;;
22916;SDS011;11624;53.250;7.456;2024-02-16T03:31:42;11.05;;;3.50;;
22916;SDS011;11624;53.250;7.456;2024-02-16T03:34:10;11.27;;;3.45;;
22916;SDS011;11624;53.250;7.456;2024-02-16T03:36:39;13.63;;;3.47;;
22916;SDS011;11624;53.250;7.456;2024-02-16T03:39:08;8.82;;;3.28;;
22916;SDS011;11624;53.250;7.456;2024-02-16T03:41:36;12.57;;;3.30;;
22916;SDS011;11624;53.250;7.456;2024-02-16T03:44:05;8.75;;;3.40;;
22916;SDS011;11624;53.250;7.456;2024-02-16T03:46:33;8.40;;;2.95;;
22916;SDS011;11624;53.250;7.456;2024-02-16T03:49:05;9.57;;;3.47;;
22916;SDS011;11624;53.250;7.456;2024-02-16T03:51:34;9.35;;;3.08;;
22916;SDS011;11624;53.250;7.456;2024-02-16T03:54:03;9.00;;;2.72;;
22916;SDS011;11624;53.250;7.456;2024-02-16T03:56:32;7.50;;;2.60;;
22916;SDS011;11624;53.250;7.456;2024-02-16T03:59:01;11.50;;;3.17;;
22916;SDS011;11624;53.250;7.456;2024-02-16T04:01:32;10.85;;;3.33;;
22916;SDS011;11624;53.250;7.456;2024-02-16T04:04:01;11.93;;;3.50;;
22916;SDS011;11624;53.250;7.456;2024-02-16T04:06:31;10.18;;;3.45;;
22916;SDS011;11624;53.250;7.456;2024-02-16T04:09:00;11.27;;;3.58;;
22916;SDS011;11624;53.250;7.456;2024-02-16T04:11:29;9.00;;;2.83;;
22916;SDS011;11624;53.250;7.456;2024-02-16T04:13:57;9.75;;;3.40;;
22916;SDS011;11624;53.250;7.456;2024-02-16T04:16:26;10.70;;;3.22;;
22916;SDS011;11624;53.250;7.456;2024-02-16T04:18:54;10.55;;;3.60;;
22916;SDS011;11624;53.250;7.456;2024-02-16T04:21:23;8.13;;;2.90;;
22916;SDS011;11624;53.250;7.456;2024-02-16T04:23:53;10.52;;;3.17;;
22916;SDS011;11624;53.250;7.456;2024-02-16T04:26:21;7.68;;;3.00;;
22916;SDS011;11624;53.250;7.456;2024-02-16T04:28:50;12.82;;;3.50;;
22916;SDS011;11624;53.250;7.456;2024-02-16T04:31:18;9.52;;;3.30;;
22916;SDS011;11624;53.250;7.456;2024-02-16T04:33:47;9.50;;;3.42;;
22916;SDS011;11624;53.250;7.456;2024-02-16T04:36:15;11.45;;;3.53;;
22916;SDS011;11624;53.250;7.456;2024-02-16T04:38:44;11.35;;;3.40;;
22916;SDS011;11624;53.250;7.456;2024-02-16T04:41:14;9.45;;;3.15;;
22916;SDS011;11624;53.250;7.456;2024-02-16T04:43:42;12.95;;;3.30;;
22916;SDS011;11624;53.250;7.456;2024-02-16T04:46:13;10.63;;;3.47;;
22916;SDS011;11624;53.250;7.456;2024-02-16T04:48:42;12.38;;;3.38;;
22916;SDS011;11624;53.250;7.456;2024-02-16T04:51:11;9.90;;;3.08;;
22916;SDS011;11624;53.250;7.456;2024-02-16T04:53:40;10.77;;;3.47;;
22916;SDS011;11624;53.250;7.456;2024-02-16T04:56:08;9.85;;;3.85;;
22916;SDS011;11624;53.250;7.456;2024-02-16T04:58:41;11.48;;;3.85;;
22916;SDS011;11624;53.250;7.456;2024-02-16T05:01:09;12.52;;;3.95;;
22916;SDS011;11624;53.250;7.456;2024-02-16T05:03:38;12.60;;;4.10;;
22916;SDS011;11624;53.250;7.456;2024-02-16T05:06:08;8.70;;;3.13;;
22916;SDS011;11624;53.250;7.456;2024-02-16T05:08:37;12.90;;;3.67;;
22916;SDS011;11624;53.250;7.456;2024-02-16T05:11:05;12.95;;;3.42;;
22916;SDS011;11624;53.250;7.456;2024-02-16T05:13:35;11.57;;;3.85;;
22916;SDS011;11624;53.250;7.456;2024-02-16T05:16:08;11.05;;;3.88;;
22916;SDS011;11624;53.250;7.456;2024-02-16T05:18:37;9.90;;;3.78;;
22916;SDS011;11624;53.250;7.456;2024-02-16T05:21:07;12.90;;;3.03;;
22916;SDS011;11624;53.250;7.456;2024-02-16T05:23:36;10.88;;;3.45;;
22916;SDS011;11624;53.250;7.456;2024-02-16T05:26:05;9.77;;;3.30;;
22916;SDS011;11624;53.250;7.456;2024-02-16T05:28:33;10.57;;;3.60;;
22916;SDS011;11624;53.250;7.456;2024-02-16T05:31:05;10.85;;;3.85;;
22916;SDS011;11624;53.250;7.456;2024-02-16T05:33:44;12.90;;;3.75;;
22916;SDS011;11624;53.250;7.456;2024-02-16T05:36:17;9.70;;;3.25;;
22916;SDS011;11624;53.250;7.456;2024-02-16T05:38:47;10.00;;;3.40;;
22916;SDS011;11624;53.250;7.456;2024-02-16T05:41:16;12.05;;;3.60;;
22916;SDS011;11624;53.250;7.456;2024-02-16T05:43:45;9.55;;;3.17;;
22916;SDS011;11624;53.250;7.456;2024-02-16T05:46:16;11.85;;;3.45;;
22916;SDS011;11624;53.250;7.456;2024-02-16T05:48:45;11.10;;;3.13;;
22916;SDS011;11624;53.250;7.456;2024-02-16T05:51:14;10.98;;;3.97;;
22916;SDS011;11624;53.250;7.456;2024-02-16T05:53:42;8.23;;;3.22;;
22916;SDS011;11624;53.250;7.456;2024-02-16T05:56:12;14.73;;;3.75;;
22916;SDS011;11624;53.250;7.456;2024-02-16T05:58:40;11.18;;;3.78;;
22916;SDS011;11624;53.250;7.456;2024-02-16T06:01:09;11.32;;;3.60;;
22916;SDS011;11624;53.250;7.456;2024-02-16T06:03:42;11.45;;;3.58;;
22916;SDS011;11624;53.250;7.456;2024-02-16T06:06:11;12.20;;;3.70;;
22916;SDS011;11624;53.250;7.456;2024-02-16T06:08:39;12.50;;;3.60;;
22916;SDS011;11624;53.250;7.456;2024-02-16T06:11:08;11.40;;;3.70;;
22916;SDS011;11624;53.250;7.456;2024-02-16T06:13:36;13.40;;;3.75;;
22916;SDS011;11624;53.250;7.456;2024-02-16T06:16:06;12.60;;;3.85;;
22916;SDS011;11624;53.250;7.456;2024-02-16T06:18:35;13.35;;;4.15;;
22916;SDS011;11624;53.250;7.456;2024-02-16T06:21:05;13.40;;;4.00;;
22916;SDS011;11624;53.250;7.456;2024-02-16T06:23:34;10.63;;;3.70;;
22916;SDS011;11624;53.250;7.456;2024-02-16T06:26:02;10.65;;;3.47;;
22916;SDS011;11624;53.250;7.456;2024-02-16T06:28:33;15.15;;;3.88;;
22916;SDS011;11624;53.250;7.456;2024-02-16T06:31:01;9.70;;;3.50;;
22916;SDS011;11624;53.250;7.456;2024-02-16T06:33:31;10.70;;;3.38;;
22916;SDS011;11624;53.250;7.456;2024-02-16T06:36:00;11.48;;;3.97;;
22916;SDS011;11624;53.250;7.456;2024-02-16T06:38:30;10.38;;;3.88;;
22916;SDS011;11624;53.250;7.456;2024-02-16T06:40:58;10.43;;;3.80;;
22916;SDS011;11624;53.250;7.456;2024-02-16T06:43:26;10.98;;;3.88;;
22916;SDS011;11624;53.250;7.456;2024-02-16T06:45:55;12.63;;;4.18;;
22916;SDS011;11624;53.250;7.456;2024-02-16T06:48:23;10.25;;;3.78;;
22916;SDS011;11624;53.250;7.456;2024-02-16T06:50:52;15.70;;;3.95;;
22916;SDS011;11624;53.250;7.456;2024-02-16T06:53:21;8.07;;;3.53;;
22916;SDS011;11624;53.250;7.456;2024-02-16T06:55:51;9.70;;;3.55;;
22916;SDS011;11624;53.250;7.456;2024-02-16T06:58:19;9.45;;;3.47;;
22916;SDS011;11624;53.250;7.456;2024-02-16T07:00:48;9.25;;;3.28;;
22916;SDS011;11624;53.250;7.456;2024-02-16T07:03:17;10.20;;;3.17;;
22916;SDS011;11624;53.250;7.456;2024-02-16T07:05:46;11.40;;;3.78;;
22916;SDS011;11624;53.250;7.456;2024-02-16T07:08:14;10.32;;;3.55;;
22916;SDS011;11624;53.250;7.456;2024-02-16T07:10:43;11.77;;;3.53;;
22916;SDS011;11624;53.250;7.456;2024-02-16T07:13:14;10.85;;;3.63;;
22916;SDS011;11624;53.250;7.456;2024-02-16T07:15:44;17.00;;;3.60;;
22916;SDS011;11624;53.250;7.456;2024-02-16T07:18:13;12.32;;;3.72;;
22916;SDS011;11624;53.250;7.456;2024-02-16T07:20:41;13.93;;;4.50;;
22916;SDS011;11624;53.250;7.456;2024-02-16T07:23:12;9.25;;;3.83;;
22916;SDS011;11624;53.250;7.456;2024-02-16T07:25:41;12.15;;;4.00;;
22916;SDS011;11624;53.250;7.456;2024-02-16T07:28:10;12.13;;;4.07;;
22916;SDS011;11624;53.250;7.456;2024-02-16T07:30:40;12.90;;;4.18;;
22916;SDS011;11624;53.250;7.456;2024-02-16T07:33:09;10.13;;;3.70;;
22916;SDS011;11624;53.250;7.456;2024-02-16T07:35:38;15.18;;;4.25;;
22916;SDS011;11624;53.250;7.456;2024-02-16T07:38:06;11.63;;;3.65;;
22916;SDS011;11624;53.250;7.456;2024-02-16T07:40:35;11.90;;;3.80;;
22916;SDS011;11624;53.250;7.456;2024-02-16T07:43:03;12.88;;;4.03;;
22916;SDS011;11624;53.250;7.456;2024-02-16T07:45:32;12.07;;;3.70;;
22916;SDS011;11624;53.250;7.456;2024-02-16T07:48:02;9.38;;;3.58;;
22916;SDS011;11624;53.250;7.456;2024-02-16T07:50:33;10.35;;;3.17;;
22916;SDS011;11624;53.250;7.456;2024-02-16T07:53:02;11.95;;;3.53;;
22916;SDS011;11624;53.250;7.456;2024-02-16T07:55:30;14.23;;;3.58;;
22916;SDS011;11624;53.250;7.456;2024-02-16T07:57:59;11.40;;;3.03;;
22916;SDS011;11624;53.250;7.456;2024-02-16T08:00:27;11.15;;;3.50;;
22916;SDS011;11624;53.250;7.456;2024-02-16T08:02:56;9.85;;;3.17;;
22916;SDS011;11624;53.250;7.456;2024-02-16T08:05:26;10.43;;;3.45;;
22916;SDS011;11624;53.250;7.456;2024-02-16T08:07:54;10.68;;;3.15;;
22916;SDS011;11624;53.250;7.456;2024-02-16T08:10:23;11.55;;;3.35;;
22916;SDS011;11624;53.250;7.456;2024-02-16T08:12:52;11.60;;;3.63;;
22916;SDS011;11624;53.250;7.456;2024-02-16T08:15:20;11.70;;;3.53;;
22916;SDS011;11624;53.250;7.456;2024-02-16T08:17:51;12.68;;;3.80;;
22916;SDS011;11624;53.250;7.456;2024-02-16T08:20:21;12.52;;;3.60;;
22916;SDS011;11624;53.250;7.456;2024-02-16T08:22:51;9.55;;;3.20;;
22916;SDS011;11624;53.250;7.456;2024-02-16T08:25:19;12.73;;;3.45;;
22916;SDS011;11624;53.250;7.456;2024-02-16T08:27:48;10.70;;;3.10;;
22916;SDS011;11624;53.250;7.456;2024-02-16T08:30:17;10.50;;;3.53;;
22916;SDS011;11624;53.250;7.456;2024-02-16T08:32:46;7.55;;;2.75;;
22916;SDS011;11624;53.250;7.456;2024-02-16T08:35:14;11.45;;;3.88;;
22916;SDS011;11624;53.250;7.456;2024-02-16T08:37:44;10.63;;;3.78;;
22916;SDS011;11624;53.250;7.456;2024-02-16T08:40:14;12.27;;;3.22;;
22916;SDS011;11624;53.250;7.456;2024-02-16T08:42:42;8.85;;;3.00;;
22916;SDS011;11624;53.250;7.456;2024-02-16T08:45:11;15.25;;;3.60;;
22916;SDS011;11624;53.250;7.456;2024-02-16T08:47:40;10.65;;;3.47;;
22916;SDS011;11624;53.250;7.456;2024-02-16T08:50:08;10.13;;;3.50;;
22916;SDS011;11624;53.250;7.456;2024-02-16T08:52:38;9.77;;;3.35;;
22916;SDS011;11624;53.250;7.456;2024-02-16T08:55:06;10.50;;;3.28;;
22916;SDS011;11624;53.250;7.456;2024-02-16T08:57:37;12.35;;;3.92;;
22916;SDS011;11624;53.250;7.456;2024-02-16T09:00:06;12.50;;;3.53;;
22916;SDS011;11624;53.250;7.456;2024-02-16T09:02:36;9.68;;;3.22;;
22916;SDS011;11624;53.250;7.456;2024-02-16T09:05:04;10.73;;;3.70;;
22916;SDS011;11624;53.250;7.456;2024-02-16T09:07:36;14.52;;;3.85;;
22916;SDS011;11624;53.250;7.456;2024-02-16T09:10:05;11.63;;;3.70;;
22916;SDS011;11624;53.250;7.456;2024-02-16T09:12:34;10.30;;;3.53;;
22916;SDS011;11624;53.250;7.456;2024-02-16T09:15:05;11.13;;;3.45;;
22916;SDS011;11624;53.250;7.456;2024-02-16T09:17:34;12.32;;;3.60;;
22916;SDS011;11624;53.250;7.456;2024-02-16T09:20:02;11.70;;;3.75;;
22916;SDS011;11624;53.250;7.456;2024-02-16T09:22:38;11.27;;;3.92;;
22916;SDS011;11624;53.250;7.456;2024-02-16T09:25:13;8.20;;;3.10;;
22916;SDS011;11624;53.250;7.456;2024-02-16T09:27:41;11.20;;;4.03;;
22916;SDS011;11624;53.250;7.456;2024-02-16T09:30:14;14.20;;;3.42;;
22916;SDS011;11624;53.250;7.456;2024-02-16T09:32:43;13.48;;;3.40;;
22916;SDS011;11624;53.250;7.456;2024-02-16T09:35:12;10.90;;;3.47;;
22916;SDS011;11624;53.250;7.456;2024-02-16T09:37:41;11.15;;;3.45;;
22916;SDS011;11624;53.250;7.456;2024-02-16T09:40:11;9.20;;;3.22;;
22916;SDS011;11624;53.250;7.456;2024-02-16T09:42:40;8.82;;;3.35;;
22916;SDS011;11624;53.250;7.456;2024-02-16T09:45:09;10.75;;;3.47;;
22916;SDS011;11624;53.250;7.456;2024-02-16T09:47:41;12.05;;;3.83;;
22916;SDS011;11624;53.250;7.456;2024-02-16T09:50:26;10.60;;;3.05;;
22916;SDS011;11624;53.250;7.456;2024-02-16T09:52:56;11.65;;;3.63;;
22916;SDS011;11624;53.250;7.456;2024-02-16T09:55:25;11.00;;;3.55;;
22916;SDS011;11624;53.250;7.456;2024-02-16T09:58:00;10.52;;;3.30;;
22916;SDS011;11624;53.250;7.456;2024-02-16T10:00:29;10.10;;;3.53;;
22916;SDS011;11624;53.250;7.456;2024-02-16T10:02:59;13.23;;;3.63;;
22916;SDS011;11624;53.250;7.456;2024-02-16T10:05:27;10.45;;;3.60;;
22916;SDS011;11624;53.250;7.456;2024-02-16T10:07:57;7.88;;;2.80;;
22916;SDS011;11624;53.250;7.456;2024-02-16T10:10:26;10.85;;;3.55;;
22916;SDS011;11624;53.250;7.456;2024-02-16T10:13:00;9.88;;;3.83;;
22916;SDS011;11624;53.250;7.456;2024-02-16T10:15:30;9.40;;;3.53;;
22916;SDS011;11624;53.250;7.456;2024-02-16T10:18:01;9.52;;;3.65;;
22916;SDS011;11624;53.250;7.456;2024-02-16T10:20:31;12.18;;;3.90;;
22916;SDS011;11624;53.250;7.456;2024-02-16T10:23:07;9.70;;;3.22;;
22916;SDS011;11624;53.250;7.456;2024-02-16T10:25:37;13.13;;;4.15;;
22916;SDS011;11624;53.250;7.456;2024-02-16T10:28:08;9.18;;;3.70;;
22916;SDS011;11624;53.250;7.456;2024-02-16T10:30:39;11.15;;;3.70;;
22916;SDS011;11624;53.250;7.456;2024-02-16T10:33:12;11.02;;;3.35;;
22916;SDS011;11624;53.250;7.456;2024-02-16T10:35:41;11.52;;;3.95;;
22916;SDS011;11624;53.250;7.456;2024-02-16T10:38:13;10.43;;;3.63;;
22916;SDS011;11624;53.250;7.456;2024-02-16T10:40:43;11.63;;;3.88;;
22916;SDS011;11624;53.250;7.456;2024-02-16T10:43:11;10.05;;;4.07;;
22916;SDS011;11624;53.250;7.456;2024-02-16T10:45:41;12.90;;;3.78;;
22916;SDS011;11624;53.250;7.456;2024-02-16T10:48:11;9.02;;;3.38;;
22916;SDS011;11624;53.250;7.456;2024-02-16T10:50:42;9.48;;;3.63;;
22916;SDS011;11624;53.250;7.456;2024-02-16T10:53:12;11.07;;;4.00;;
22916;SDS011;11624;53.250;7.456;2024-02-16T10:55:45;10.80;;;3.67;;
22916;SDS011;11624;53.250;7.456;2024-02-16T10:58:14;12.00;;;3.95;;
22916;SDS011;11624;53.250;7.456;2024-02-16T11:00:48;12.77;;;3.95;;
22916;SDS011;11624;53.250;7.456;2024-02-16T11:03:24;12.95;;;4.10;;
22916;SDS011;11624;53.250;7.456;2024-02-16T11:05:55;14.43;;;4.43;;
22916;SDS011;11624;53.250;7.456;2024-02-16T11:08:26;12.13;;;4.40;;
22916;SDS011;11624;53.250;7.456;2024-02-16T11:10:57;13.50;;;4.60;;
22916;SDS011;11624;53.250;7.456;2024-02-16T11:13:26;11.77;;;4.28;;
22916;SDS011;11624;53.250;7.456;2024-02-16T11:15:56;11.50;;;3.83;;
22916;SDS011;11624;53.250;7.456;2024-02-16T11:18:27;11.80;;;4.10;;
22916;SDS011;11624;53.250;7.456;2024-02-16T11:20:59;11.88;;;4.35;;
22916;SDS011;11624;53.250;7.456;2024-02-16T11:23:29;11.82;;;4.20;;
22916;SDS011;11624;53.250;7.456;2024-02-16T11:26:01;15.10;;;4.25;;
22916;SDS011;11624;53.250;7.456;2024-02-16T11:28:34;13.15;;;4.32;;
22916;SDS011;11624;53.250;7.456;2024-02-16T11:31:02;11.18;;;3.78;;
22916;SDS011;11624;53.250;7.456;2024-02-16T11:33:33;12.90;;;4.70;;
22916;SDS011;11624;53.250;7.456;2024-02-16T11:36:03;12.90;;;4.68;;
22916;SDS011;11624;53.250;7.456;2024-02-16T11:38:32;12.90;;;5.03;;
22916;SDS011;11624;53.250;7.456;2024-02-16T11:41:02;15.32;;;4.70;;
22916;SDS011;11624;53.250;7.456;2024-02-16T11:43:31;11.93;;;4.80;;
22916;SDS011;11624;53.250;7.456;2024-02-16T11:46:10;13.70;;;5.40;;
22916;SDS011;11624;53.250;7.456;2024-02-16T11:48:41;15.85;;;4.70;;
22916;SDS011;11624;53.250;7.456;2024-02-16T11:51:10;13.88;;;5.60;;
22916;SDS011;11624;53.250;7.456;2024-02-16T11:53:38;15.05;;;5.53;;
22916;SDS011;11624;53.250;7.456;2024-02-16T11:56:07;12.02;;;4.55;;
22916;SDS011;11624;53.250;7.456;2024-02-16T11:58:36;12.80;;;5.15;;
22916;SDS011;11624;53.250;7.456;2024-02-16T12:01:04;13.70;;;4.47;;
22916;SDS011;11624;53.250;7.456;2024-02-16T12:03:40;13.27;;;5.55;;
22916;SDS011;11624;53.250;7.456;2024-02-16T12:06:18;13.60;;;4.93;;
22916;SDS011;11624;53.250;7.456;2024-02-16T12:08:49;13.05;;;5.22;;
22916;SDS011;11624;53.250;7.456;2024-02-16T12:11:20;13.40;;;5.53;;
22916;SDS011;11624;53.250;7.456;2024-02-16T12:13:49;13.65;;;4.97;;
22916;SDS011;11624;53.250;7.456;2024-02-16T12:16:18;15.25;;;5.65;;
22916;SDS011;11624;53.250;7.456;2024-02-16T12:18:49;12.95;;;5.20;;
22916;SDS011;11624;53.250;7.456;2024-02-16T12:21:17;15.43;;;5.90;;
22916;SDS011;11624;53.250;7.456;2024-02-16T12:23:47;14.13;;;6.35;;
22916;SDS011;11624;53.250;7.456;2024-02-16T12:26:16;18.13;;;7.00;;
22916;SDS011;11624;53.250;7.456;2024-02-16T12:28:45;17.23;;;7.07;;
22916;SDS011;11624;53.250;7.456;2024-02-16T12:31:17;20.50;;;8.65;;
22916;SDS011;11624;53.250;7.456;2024-02-16T12:33:46;20.40;;;8.90;;
22916;SDS011;11624;53.250;7.456;2024-02-16T12:36:17;20.15;;;10.20;;
22916;SDS011;11624;53.250;7.456;2024-02-16T12:38:46;18.92;;;9.18;;
22916;SDS011;11624;53.250;7.456;2024-02-16T12:41:14;22.20;;;10.05;;
22916;SDS011;11624;53.250;7.456;2024-02-16T12:43:43;18.88;;;9.05;;
22916;SDS011;11624;53.250;7.456;2024-02-16T12:46:11;20.13;;;9.68;;
22916;SDS011;11624;53.250;7.456;2024-02-16T12:48:40;17.77;;;7.90;;
22916;SDS011;11624;53.250;7.456;2024-02-16T12:51:13;18.17;;;7.57;;
22916;SDS011;11624;53.250;7.456;2024-02-16T12:53:42;14.80;;;6.85;;
22916;SDS011;11624;53.250;7.456;2024-02-16T12:56:10;15.25;;;6.07;;
22916;SDS011;11624;53.250;7.456;2024-02-16T12:58:39;16.08;;;6.53;;
22916;SDS011;11624;53.250;7.456;2024-02-16T13:01:07;14.02;;;6.13;;
22916;SDS011;11624;53.250;7.456;2024-02-16T13:03:50;15.85;;;6.95;;
22916;SDS011;11624;53.250;7.456;2024-02-16T13:06:20;14.43;;;6.28;;
22916;SDS011;11624;53.250;7.456;2024-02-16T13:08:54;13.57;;;5.75;;
22916;SDS011;11624;53.250;7.456;2024-02-16T13:11:23;13.45;;;5.55;;
22916;SDS011;11624;53.250;7.456;2024-02-16T13:13:51;12.35;;;4.80;;
22916;SDS011;11624;53.250;7.456;2024-02-16T13:16:20;14.18;;;6.10;;
22916;SDS011;11624;53.250;7.456;2024-02-16T13:18:49;15.55;;;5.47;;
22916;SDS011;11624;53.250;7.456;2024-02-16T13:21:17;12.88;;;5.22;;
22916;SDS011;11624;53.250;7.456;2024-02-16T13:23:47;16.58;;;6.00;;
22916;SDS011;11624;53.250;7.456;2024-02-16T13:26:16;18.55;;;5.95;;
22916;SDS011;11624;53.250;7.456;2024-02-16T13:28:44;13.82;;;5.53;;
22916;SDS011;11624;53.250;7.456;2024-02-16T13:31:13;13.77;;;4.75;;
22916;SDS011;11624;53.250;7.456;2024-02-16T13:33:41;20.40;;;7.32;;
22916;SDS011;11624;53.250;7.456;2024-02-16T13:36:10;20.67;;;8.32;;
22916;SDS011;11624;53.250;7.456;2024-02-16T13:38:38;15.43;;;5.53;;
22916;SDS011;11624;53.250;7.456;2024-02-16T13:41:08;13.13;;;5.25;;
22916;SDS011;11624;53.250;7.456;2024-02-16T13:43:36;14.15;;;5.07;;
22916;SDS011;11624;53.250;7.456;2024-02-16T13:46:08;13.27;;;5.03;;
22916;SDS011;11624;53.250;7.456;2024-02-16T13:48:37;12.52;;;4.60;;
22916;SDS011;11624;53.250;7.456;2024-02-16T13:51:08;12.00;;;4.50;;
22916;SDS011;11624;53.250;7.456;2024-02-16T13:53:37;11.30;;;4.30;;
22916;SDS011;11624;53.250;7.456;2024-02-16T13:56:06;12.13;;;4.57;;
22916;SDS011;11624;53.250;7.456;2024-02-16T13:58:36;10.18;;;4.03;;
22916;SDS011;11624;53.250;7.456;2024-02-16T14:01:05;12.13;;;4.03;;
22916;SDS011;11624;53.250;7.456;2024-02-16T14:03:34;11.75;;;4.03;;
22916;SDS011;11624;53.250;7.456;2024-02-16T14:06:04;11.68;;;3.67;;
22916;SDS011;11624;53.250;7.456;2024-02-16T14:08:36;10.15;;;3.67;;
22916;SDS011;11624;53.250;7.456;2024-02-16T14:11:05;9.73;;;3.10;;
22916;SDS011;11624;53.250;7.456;2024-02-16T14:13:36;10.65;;;3.63;;
22916;SDS011;11624;53.250;7.456;2024-02-16T14:16:05;9.98;;;3.65;;
22916;SDS011;11624;53.250;7.456;2024-02-16T14:18:34;11.85;;;4.15;;
22916;SDS011;11624;53.250;7.456;2024-02-16T14:21:06;9.15;;;3.55;;
22916;SDS011;11624;53.250;7.456;2024-02-16T14:23:34;12.50;;;4.75;;
22916;SDS011;11624;53.250;7.456;2024-02-16T14:26:03;12.82;;;4.60;;
22916;SDS011;11624;53.250;7.456;2024-02-16T14:28:31;10.30;;;3.75;;
22916;SDS011;11624;53.250;7.456;2024-02-16T14:31:01;10.55;;;3.10;;
22916;SDS011;11624;53.250;7.456;2024-02-16T14:33:30;6.03;;;2.65;;
22916;SDS011;11624;53.250;7.456;2024-02-16T14:36:00;8.23;;;2.67;;
22916;SDS011;11624;53.250;7.456;2024-02-16T14:38:29;5.95;;;2.35;;
22916;SDS011;11624;53.250;7.456;2024-02-16T14:40:58;8.57;;;3.25;;
22916;SDS011;11624;53.250;7.456;2024-02-16T14:43:30;11.95;;;3.78;;
22916;SDS011;11624;53.250;7.456;2024-02-16T14:45:59;9.48;;;3.08;;
22916;SDS011;11624;53.250;7.456;2024-02-16T14:48:31;6.78;;;2.47;;
22916;SDS011;11624;53.250;7.456;2024-02-16T14:51:00;6.47;;;2.45;;